Time;durP1;ratioP1;P1;durP2;ratioP2;P2;SDS_P1;SDS_P2;PMS_P1;PMS_P2;Temp;Humidity;BMP_temperature;BMP_pressure;BME280_temperature;BME280_humidity;BME280_pressure;Samples;Min_cycle;Max_cycle;Signal;HPM_P1;HPM_P2
2022/09/30 00:00:01;;;;;;;12.75;10.23;;;10.50;99.90;;;;;;5124915;27;20042;-86
2022/09/30 00:02:26;;;;;;;13.02;9.77;;;10.50;99.90;;;;;;5142162;27;20551;-86
2022/09/30 00:04:52;;;;;;;10.35;8.90;;;10.60;99.90;;;;;;5124579;27;20035;-85
2022/09/30 00:07:18;;;;;;;10.80;8.82;;;10.70;99.90;;;;;;5124788;27;20038;-86
2022/09/30 00:09:44;;;;;;;10.48;8.88;;;10.50;99.90;;;;;;5142293;27;20038;-86
2022/09/30 00:12:10;;;;;;;9.95;8.77;;;10.40;99.90;;;;;;5125203;27;20500;-86
2022/09/30 00:14:36;;;;;;;10.15;9.02;;;10.40;99.90;;;;;;5125209;27;20138;-85
2022/09/30 00:17:02;;;;;;;10.93;9.07;;;10.40;99.90;;;;;;5142180;27;20054;-86
2022/09/30 00:19:27;;;;;;;10.45;9.23;;;10.40;99.90;;;;;;5104464;27;20031;-86
2022/09/30 00:21:53;;;;;;;9.10;8.20;;;10.40;99.90;;;;;;5107260;27;20043;-86
2022/09/30 00:24:19;;;;;;;9.27;8.07;;;10.80;99.90;;;;;;5124732;27;20038;-86
2022/09/30 00:26:45;;;;;;;9.20;8.20;;;10.30;99.90;;;;;;5104212;27;20102;-86
2022/09/30 00:29:11;;;;;;;9.65;8.30;;;10.30;99.90;;;;;;5123263;27;20035;-86
2022/09/30 00:31:37;;;;;;;10.98;8.35;;;10.30;99.90;;;;;;5137341;27;20046;-86
2022/09/30 00:34:05;;;;;;;10.38;7.47;;;10.20;99.90;;;;;;5158558;27;20035;-86
2022/09/30 00:36:47;;;;;;;9.35;7.35;;;10.20;99.90;;;;;;5141448;27;20049;-83
2022/09/30 00:39:25;;;;;;;9.38;6.93;;;10.20;99.90;;;;;;5141127;27;20031;-83
2022/09/30 00:41:57;;;;;;;9.80;7.13;;;10.10;99.90;;;;;;5140684;27;20061;-82
2022/09/30 00:44:54;;;;;;;7.75;6.78;;;10.10;99.90;;;;;;5141450;27;20042;-83
2022/09/30 00:47:31;;;;;;;6.90;6.20;;;10.00;99.90;;;;;;5139184;27;20506;-83
2022/09/30 00:50:01;;;;;;;7.60;6.50;;;10.00;99.90;;;;;;5136500;27;20119;-83
2022/09/30 00:52:28;;;;;;;12.20;6.18;;;10.00;99.90;;;;;;5139983;27;20403;-85
2022/09/30 00:54:57;;;;;;;8.02;6.18;;;10.30;99.90;;;;;;5141594;27;20547;-86
2022/09/30 00:57:23;;;;;;;7.43;6.40;;;10.10;99.90;;;;;;5142605;27;20042;-86
2022/09/30 00:59:50;;;;;;;7.10;5.95;;;9.80;99.90;;;;;;5141879;27;20034;-86
2022/09/30 01:02:16;;;;;;;7.38;6.05;;;9.80;99.90;;;;;;5120953;27;20039;-85
2022/09/30 01:04:44;;;;;;;7.18;6.05;;;9.80;99.90;;;;;;5144413;27;20121;-87
2022/09/30 01:07:13;;;;;;;8.75;6.05;;;9.70;99.90;;;;;;5122253;27;20088;-86
2022/09/30 01:09:40;;;;;;;6.85;5.97;;;9.70;99.90;;;;;;5122063;27;20031;-86
2022/09/30 01:12:11;;;;;;;8.40;6.20;;;9.60;99.90;;;;;;5136420;27;20069;-85
2022/09/30 01:14:39;;;;;;;7.60;6.22;;;9.60;99.90;;;;;;5162941;27;20121;-86
2022/09/30 01:17:10;;;;;;;7.13;6.35;;;9.60;99.90;;;;;;5161659;27;20042;-85
2022/09/30 01:19:39;;;;;;;6.97;6.00;;;9.50;99.90;;;;;;5160950;27;20046;-85
2022/09/30 01:22:16;;;;;;;7.30;5.57;;;9.50;99.90;;;;;;5136091;27;20038;-86
2022/09/30 01:25:14;;;;;;;7.30;6.05;;;9.50;99.90;;;;;;5140825;27;20035;-86
2022/09/30 01:27:49;;;;;;;6.60;5.22;;;9.40;99.90;;;;;;5100087;27;20054;-85
2022/09/30 01:30:48;;;;;;;6.43;5.30;;;9.30;99.90;;;;;;5132404;27;20071;-85
2022/09/30 01:33:35;;;;;;;7.72;5.40;;;9.40;99.90;;;;;;5106254;27;20038;-86
2022/09/30 01:36:16;;;;;;;8.38;5.35;;;9.40;99.90;;;;;;5140021;27;20035;-86
2022/09/30 01:39:34;;;;;;;6.03;5.43;;;9.30;99.90;;;;;;5156623;27;20038;-85
2022/09/30 01:42:09;;;;;;;7.32;5.93;;;9.30;99.90;;;;;;5127369;27;20043;-86
2022/09/30 01:44:48;;;;;;;7.07;5.75;;;9.20;99.90;;;;;;5134901;27;20039;-86
2022/09/30 01:47:32;;;;;;;7.05;5.07;;;9.20;99.90;;;;;;5138244;27;20479;-86
2022/09/30 01:50:04;;;;;;;6.18;5.55;;;9.10;99.90;;;;;;5157218;27;20057;-86
2022/09/30 01:52:36;;;;;;;6.45;5.75;;;9.10;99.90;;;;;;5140755;27;20035;-86
2022/09/30 01:55:34;;;;;;;8.20;5.60;;;9.10;99.90;;;;;;5140819;27;20034;-86
2022/09/30 01:58:08;;;;;;;6.97;5.72;;;9.10;99.90;;;;;;5154807;27;20047;-86
2022/09/30 02:00:39;;;;;;;6.95;6.25;;;9.10;99.90;;;;;;5140005;27;20034;-85
2022/09/30 02:03:11;;;;;;;8.13;6.50;;;9.70;99.90;;;;;;5139745;27;20581;-86
2022/09/30 02:05:49;;;;;;;9.05;7.22;;;9.10;99.90;;;;;;5156349;27;20110;-86
2022/09/30 02:08:29;;;;;;;7.13;6.30;;;9.00;99.90;;;;;;5140028;27;20039;-86
2022/09/30 02:11:10;;;;;;;7.97;6.40;;;9.00;99.90;;;;;;5134466;27;20495;-85
2022/09/30 02:13:58;;;;;;;7.57;6.22;;;9.00;99.90;;;;;;5131469;27;20103;-85
2022/09/30 02:16:29;;;;;;;8.35;6.97;;;9.00;99.90;;;;;;5133837;27;20079;-85
2022/09/30 02:19:32;;;;;;;6.93;6.22;;;9.00;99.90;;;;;;5129530;27;20111;-85
2022/09/30 02:22:15;;;;;;;7.65;6.63;;;8.90;99.90;;;;;;5106924;27;20049;-86
2022/09/30 02:24:43;;;;;;;9.23;6.65;;;8.90;99.90;;;;;;5142903;27;20035;-86
2022/09/30 02:27:14;;;;;;;11.93;6.65;;;8.80;99.90;;;;;;5104908;27;20049;-83
2022/09/30 02:29:45;;;;;;;7.13;6.38;;;8.80;99.90;;;;;;5126764;27;20069;-84
2022/09/30 02:32:19;;;;;;;7.97;6.70;;;8.70;99.90;;;;;;5137992;27;20470;-83
2022/09/30 02:34:50;;;;;;;8.57;6.60;;;9.70;99.90;;;;;;5122459;27;20390;-84
2022/09/30 02:37:19;;;;;;;9.23;7.18;;;8.70;99.90;;;;;;5138751;27;20039;-83
2022/09/30 02:39:56;;;;;;;8.02;6.90;;;8.70;99.90;;;;;;5138451;27;20035;-83
2022/09/30 02:42:27;;;;;;;7.95;7.00;;;8.70;99.90;;;;;;5154531;27;20118;-83
2022/09/30 02:44:58;;;;;;;8.95;7.15;;;8.60;99.90;;;;;;5137100;27;20042;-83
2022/09/30 02:47:30;;;;;;;7.80;6.88;;;8.60;99.90;;;;;;5122558;27;20054;-83
2022/09/30 02:50:20;;;;;;;8.00;7.20;;;8.50;99.90;;;;;;5117487;28;20082;-83
2022/09/30 02:52:45;;;;;;;7.47;6.65;;;8.50;99.90;;;;;;5130280;27;20042;-83
2022/09/30 02:55:37;;;;;;;8.93;6.45;;;8.40;99.90;;;;;;5137411;27;20097;-84
2022/09/30 02:58:12;;;;;;;7.25;6.53;;;8.40;99.90;;;;;;5099034;27;20043;-83
2022/09/30 03:00:38;;;;;;;8.48;7.15;;;8.40;99.90;;;;;;5124568;27;20054;-83
2022/09/30 03:03:10;;;;;;;8.82;7.10;;;8.90;99.90;;;;;;5117064;28;20529;-83
2022/09/30 03:05:36;;;;;;;9.02;6.93;;;8.40;99.90;;;;;;5134438;27;20042;-83
2022/09/30 03:08:02;;;;;;;9.23;6.47;;;9.00;99.90;;;;;;5140968;27;20386;-83
2022/09/30 03:10:29;;;;;;;8.35;6.82;;;8.50;99.90;;;;;;5137849;27;20039;-83
2022/09/30 03:13:24;;;;;;;9.18;7.30;;;9.40;99.90;;;;;;5138008;27;20039;-84
2022/09/30 03:16:14;;;;;;;7.85;7.05;;;8.30;99.90;;;;;;5142024;27;20071;-83
2022/09/30 03:19:07;;;;;;;9.63;7.10;;;8.30;99.90;;;;;;5137171;27;20085;-82
2022/09/30 03:21:41;;;;;;;7.75;6.75;;;8.20;99.90;;;;;;5132186;27;20121;-82
2022/09/30 03:24:40;;;;;;;8.35;6.90;;;8.20;99.90;;;;;;5117539;27;20111;-83
2022/09/30 03:27:36;;;;;;;8.80;6.97;;;8.20;99.90;;;;;;5146997;27;20042;-83
2022/09/30 03:30:15;;;;;;;7.60;6.65;;;8.20;99.90;;;;;;5137153;27;20035;-83
2022/09/30 03:32:51;;;;;;;7.03;6.32;;;8.20;99.90;;;;;;5137702;27;20057;-83
2022/09/30 03:35:29;;;;;;;8.18;6.95;;;8.20;99.90;;;;;;5138604;27;20121;-83
2022/09/30 03:38:04;;;;;;;7.28;6.45;;;8.20;99.90;;;;;;5138532;27;20043;-83
2022/09/30 03:40:40;;;;;;;8.90;7.00;;;8.10;99.90;;;;;;5118839;27;20035;-83
2022/09/30 03:43:17;;;;;;;7.68;6.88;;;8.10;99.90;;;;;;5133184;28;20039;-83
2022/09/30 03:46:13;;;;;;;10.07;6.80;;;8.40;99.90;;;;;;5134540;27;20132;-83
2022/09/30 03:48:41;;;;;;;8.18;6.75;;;8.00;99.90;;;;;;5115071;28;20055;-84
2022/09/30 03:51:08;;;;;;;8.23;7.13;;;8.00;99.90;;;;;;5116354;28;20050;-83
2022/09/30 03:53:41;;;;;;;7.32;6.63;;;8.00;99.90;;;;;;5099276;28;20035;-83
2022/09/30 03:56:07;;;;;;;9.05;6.72;;;7.90;99.90;;;;;;5133243;27;20043;-83
2022/09/30 03:58:33;;;;;;;9.50;6.82;;;7.90;99.90;;;;;;5119816;27;20498;-83
2022/09/30 04:00:59;;;;;;;7.32;6.35;;;7.90;99.90;;;;;;5136966;27;20566;-84
2022/09/30 04:03:26;;;;;;;8.20;6.32;;;7.80;99.90;;;;;;5119639;27;20144;-83
2022/09/30 04:05:52;;;;;;;8.07;6.32;;;7.80;99.90;;;;;;5102288;27;20039;-83
2022/09/30 04:08:18;;;;;;;7.22;6.38;;;8.20;99.90;;;;;;5137672;27;20087;-83
2022/09/30 04:10:44;;;;;;;7.57;6.43;;;8.80;99.90;;;;;;5132666;27;20483;-82
2022/09/30 04:13:10;;;;;;;7.20;6.45;;;8.00;99.90;;;;;;5131602;27;20547;-82
2022/09/30 04:15:36;;;;;;;8.80;6.95;;;7.70;99.90;;;;;;5137719;27;20035;-82
2022/09/30 04:18:03;;;;;;;7.82;6.85;;;7.80;99.90;;;;;;5131266;27;20106;-83
2022/09/30 04:20:30;;;;;;;7.05;6.35;;;7.70;99.90;;;;;;5153608;27;20076;-82
2022/09/30 04:23:00;;;;;;;8.18;6.55;;;7.70;99.90;;;;;;5138750;27;20418;-83
2022/09/30 04:25:27;;;;;;;7.22;6.32;;;7.90;99.90;;;;;;5140285;27;20126;-82
2022/09/30 04:27:53;;;;;;;8.13;6.57;;;7.70;99.90;;;;;;5105758;27;20079;-83
2022/09/30 04:30:19;;;;;;;8.30;6.00;;;8.00;99.90;;;;;;5128368;27;20395;-83
2022/09/30 04:32:45;;;;;;;6.50;5.78;;;7.60;99.90;;;;;;5139214;27;20035;-84
2022/09/30 04:35:12;;;;;;;6.80;5.70;;;7.60;99.90;;;;;;5128547;27;20031;-82
2022/09/30 04:37:45;;;;;;;7.45;6.65;;;7.60;99.90;;;;;;5125705;27;20037;-83
2022/09/30 04:40:12;;;;;;;9.48;6.10;;;7.50;99.90;;;;;;5124001;27;20031;-83
2022/09/30 04:42:39;;;;;;;6.50;5.75;;;7.50;99.90;;;;;;5120403;27;20042;-82
2022/09/30 04:45:06;;;;;;;6.22;5.43;;;7.50;99.90;;;;;;5093145;27;20043;-83
2022/09/30 04:47:32;;;;;;;6.28;5.47;;;7.50;99.90;;;;;;5146190;27;20060;-83
2022/09/30 04:49:57;;;;;;;8.60;5.88;;;7.50;99.90;;;;;;5111410;27;20517;-83
2022/09/30 04:52:23;;;;;;;7.45;5.30;;;7.60;99.90;;;;;;5123977;27;20142;-81
2022/09/30 04:54:49;;;;;;;6.68;5.30;;;7.40;99.90;;;;;;5122543;27;20041;-81
2022/09/30 04:57:14;;;;;;;6.00;4.80;;;7.40;99.90;;;;;;5157789;27;20035;-82
2022/09/30 04:59:40;;;;;;;7.45;5.07;;;7.30;99.90;;;;;;5114702;27;20176;-81
2022/09/30 05:02:06;;;;;;;5.88;4.93;;;6.60;99.90;;;;;;5120581;27;20046;-82
2022/09/30 05:04:32;;;;;;;6.32;5.43;;;7.30;99.90;;;;;;5140409;27;20043;-82
2022/09/30 05:07:00;;;;;;;5.68;5.05;;;7.30;99.90;;;;;;5104222;27;20118;-85
2022/09/30 05:09:26;;;;;;;6.97;5.28;;;7.30;99.90;;;;;;5121465;27;20039;-86
2022/09/30 05:11:52;;;;;;;5.20;4.70;;;7.50;99.90;;;;;;5106696;27;20031;-85
2022/09/30 05:14:18;;;;;;;6.20;4.88;;;7.20;99.90;;;;;;5137546;27;20095;-87
2022/09/30 05:16:43;;;;;;;4.95;4.45;;;7.20;99.90;;;;;;5120686;27;20032;-86
2022/09/30 05:19:09;;;;;;;6.70;5.55;;;8.00;99.90;;;;;;5106401;27;20035;-86
2022/09/30 05:21:35;;;;;;;6.40;5.30;;;7.20;99.90;;;;;;5140144;27;20041;-86
2022/09/30 05:24:01;;;;;;;6.10;5.40;;;7.50;99.90;;;;;;5123399;27;20639;-88
2022/09/30 05:26:27;;;;;;;6.28;5.57;;;8.60;99.90;;;;;;5123772;27;20046;-85
2022/09/30 05:28:53;;;;;;;7.50;6.13;;;7.30;99.90;;;;;;5148082;27;20126;-85
2022/09/30 05:31:22;;;;;;;6.97;6.25;;;7.50;99.90;;;;;;5087790;27;20031;-85
2022/09/30 05:33:47;;;;;;;7.25;6.18;;;7.30;99.90;;;;;;5121330;27;20198;-86
2022/09/30 05:36:14;;;;;;;9.50;7.05;;;7.10;99.90;;;;;;5119705;27;20099;-84
2022/09/30 05:38:41;;;;;;;7.10;5.75;;;7.60;99.90;;;;;;5118199;27;20406;-86
2022/09/30 05:41:12;;;;;;;7.05;6.10;;;7.60;99.90;;;;;;5110715;27;20075;-85
2022/09/30 05:43:39;;;;;;;7.55;6.32;;;7.10;99.90;;;;;;5142601;27;20102;-85
2022/09/30 05:46:05;;;;;;;9.45;6.25;;;7.00;99.90;;;;;;5144541;27;20043;-85
2022/09/30 05:48:31;;;;;;;8.38;6.95;;;7.10;99.90;;;;;;5128616;27;20082;-84
2022/09/30 05:51:00;;;;;;;7.43;6.63;;;7.10;99.90;;;;;;5107369;27;20129;-85
2022/09/30 05:53:27;;;;;;;8.98;6.22;;;8.60;99.90;;;;;;5146161;27;20019;-85
2022/09/30 05:55:53;;;;;;;7.55;6.40;;;7.40;99.90;;;;;;5127711;27;20108;-84
2022/09/30 05:58:20;;;;;;;8.77;6.80;;;7.10;99.90;;;;;;5145354;27;20031;-84
2022/09/30 06:00:47;;;;;;;8.15;6.93;;;7.10;99.90;;;;;;5114382;27;20110;-84
2022/09/30 06:03:14;;;;;;;11.40;6.85;;;7.20;99.90;;;;;;5141064;27;20035;-84
2022/09/30 06:05:40;;;;;;;8.90;6.68;;;8.60;99.90;;;;;;5141341;27;20035;-85
2022/09/30 06:08:08;;;;;;;8.40;6.57;;;7.10;99.90;;;;;;5123711;27;20038;-86
2022/09/30 06:10:35;;;;;;;8.48;6.60;;;7.10;99.90;;;;;;5126561;27;20035;-84
2022/09/30 06:13:04;;;;;;;10.07;6.78;;;7.10;99.90;;;;;;5136615;27;20126;-84
2022/09/30 06:15:30;;;;;;;7.45;6.22;;;7.10;99.90;;;;;;5102162;27;20039;-84
2022/09/30 06:17:57;;;;;;;8.45;6.38;;;7.10;99.90;;;;;;5119660;27;20043;-85
2022/09/30 06:20:23;;;;;;;9.63;6.38;;;7.10;99.90;;;;;;5102871;27;20039;-87
2022/09/30 06:26:23;;;;;;;7.20;6.40;;;7.10;99.90;;;;;;5158229;27;20554;-85
2022/09/30 06:28:50;;;;;;;9.00;7.00;;;7.10;99.90;;;;;;5123020;27;20043;-85
2022/09/30 06:31:16;;;;;;;9.25;7.65;;;7.40;99.90;;;;;;5139787;27;20098;-86
2022/09/30 06:33:42;;;;;;;9.07;7.00;;;7.20;99.90;;;;;;5139839;27;20039;-85
2022/09/30 06:36:07;;;;;;;7.82;6.45;;;7.50;99.90;;;;;;5121886;27;20042;-86
2022/09/30 06:38:38;;;;;;;7.60;6.32;;;7.20;99.90;;;;;;5117717;27;20031;-85
2022/09/30 06:41:04;;;;;;;8.73;6.93;;;7.30;99.90;;;;;;5102238;27;20128;-86
2022/09/30 06:43:30;;;;;;;10.75;7.18;;;7.30;99.90;;;;;;5084238;27;20043;-86
2022/09/30 06:45:56;;;;;;;14.90;7.13;;;7.40;99.90;;;;;;5101679;27;20116;-85
2022/09/30 06:48:22;;;;;;;8.63;7.30;;;8.00;99.90;;;;;;5135081;27;20046;-85
2022/09/30 06:50:48;;;;;;;10.60;7.15;;;7.90;99.90;;;;;;5100687;27;20059;-86
2022/09/30 06:53:15;;;;;;;9.57;7.05;;;7.50;99.90;;;;;;5132153;27;20721;-85
2022/09/30 06:55:41;;;;;;;7.90;6.93;;;8.20;99.90;;;;;;5101125;27;20039;-86
2022/09/30 06:58:12;;;;;;;10.27;7.53;;;7.60;99.90;;;;;;5117990;27;20039;-85
2022/09/30 07:00:38;;;;;;;11.23;7.30;;;7.60;99.90;;;;;;5118107;28;20540;-85
2022/09/30 07:03:08;;;;;;;11.02;7.03;;;7.70;99.90;;;;;;5137284;27;20047;-85
2022/09/30 07:05:37;;;;;;;10.27;7.57;;;7.70;99.90;;;;;;5123100;27;20050;-86
2022/09/30 07:08:03;;;;;;;9.02;6.97;;;7.70;99.90;;;;;;5121793;27;20039;-85
2022/09/30 07:10:28;;;;;;;8.68;6.90;;;7.80;99.90;;;;;;5138133;27;20038;-86
2022/09/30 07:12:54;;;;;;;10.90;7.32;;;7.80;99.90;;;;;;5155127;27;20035;-85
2022/09/30 07:15:22;;;;;;;10.55;7.53;;;7.80;99.90;;;;;;5120776;27;20043;-86
2022/09/30 07:17:58;;;;;;;9.25;7.97;;;7.90;99.90;;;;;;5122140;27;20117;-85
2022/09/30 07:20:24;;;;;;;8.65;7.28;;;7.90;99.90;;;;;;5118818;28;20126;-85
2022/09/30 07:22:50;;;;;;;10.65;8.43;;;8.70;99.90;;;;;;5134879;28;20039;-86
2022/09/30 07:25:16;;;;;;;9.45;7.40;;;8.00;99.90;;;;;;5117182;28;20050;-85
2022/09/30 07:27:43;;;;;;;8.98;7.13;;;8.10;99.90;;;;;;5100198;28;20035;-83
2022/09/30 07:30:10;;;;;;;9.50;8.27;;;8.20;99.90;;;;;;5133205;27;20035;-83
2022/09/30 07:32:36;;;;;;;10.65;7.55;;;8.20;99.90;;;;;;5137912;27;20057;-82
2022/09/30 07:35:02;;;;;;;9.93;7.10;;;8.30;99.90;;;;;;5138340;27;20363;-83
2022/09/30 07:37:31;;;;;;;10.27;7.32;;;8.40;99.90;;;;;;5121003;27;20091;-83
2022/09/30 07:39:57;;;;;;;12.00;7.85;;;8.40;99.90;;;;;;5121388;27;20390;-83
2022/09/30 07:42:23;;;;;;;10.05;7.75;;;8.90;99.90;;;;;;5119431;27;20438;-84
2022/09/30 07:44:50;;;;;;;11.10;7.55;;;8.50;99.90;;;;;;5120246;27;20043;-83
2022/09/30 07:47:17;;;;;;;10.45;7.80;;;8.60;99.90;;;;;;5104158;27;20096;-83
2022/09/30 07:49:44;;;;;;;10.57;8.90;;;8.60;99.90;;;;;;5121274;27;20495;-83
2022/09/30 07:52:11;;;;;;;9.65;8.57;;;8.70;99.90;;;;;;5121563;27;20130;-83
2022/09/30 07:54:37;;;;;;;12.90;9.60;;;9.20;99.90;;;;;;5104405;27;20035;-83
2022/09/30 07:57:04;;;;;;;12.38;9.95;;;8.80;99.90;;;;;;5121028;27;20032;-83
2022/09/30 07:59:32;;;;;;;12.55;9.77;;;8.90;99.90;;;;;;5137996;27;20042;-83
2022/09/30 08:01:58;;;;;;;12.02;10.32;;;9.10;99.90;;;;;;5120400;27;20554;-83
2022/09/30 08:04:25;;;;;;;12.07;9.82;;;9.10;99.90;;;;;;5120663;27;20119;-83
2022/09/30 08:06:57;;;;;;;13.10;10.85;;;9.00;99.90;;;;;;5103299;27;20087;-83
2022/09/30 08:09:25;;;;;;;11.30;9.85;;;9.70;99.90;;;;;;5120677;27;20130;-83
2022/09/30 08:11:51;;;;;;;12.35;10.48;;;9.30;99.90;;;;;;5144701;27;20095;-82
2022/09/30 08:14:22;;;;;;;11.25;9.60;;;9.30;99.90;;;;;;5158687;27;20035;-82
2022/09/30 08:16:48;;;;;;;10.38;9.18;;;9.40;99.90;;;;;;5141053;27;20035;-82
2022/09/30 08:19:20;;;;;;;14.10;9.77;;;9.40;99.90;;;;;;5141819;27;20061;-82
2022/09/30 08:21:46;;;;;;;16.88;9.63;;;9.50;99.90;;;;;;5141389;27;20087;-83
2022/09/30 08:24:12;;;;;;;13.80;9.02;;;9.60;99.90;;;;;;5141452;27;20048;-82
2022/09/30 08:26:39;;;;;;;12.13;9.20;;;9.60;99.90;;;;;;5123940;27;20076;-82
2022/09/30 08:29:05;;;;;;;10.90;8.50;;;9.70;99.90;;;;;;5123990;27;20039;-82
2022/09/30 08:31:32;;;;;;;13.55;8.70;;;9.80;99.90;;;;;;5123670;27;20455;-83
2022/09/30 08:33:58;;;;;;;11.77;8.35;;;9.90;99.90;;;;;;5125005;27;20034;-82
2022/09/30 08:36:26;;;;;;;11.75;8.82;;;9.90;99.90;;;;;;5107112;27;20042;-82
2022/09/30 08:38:52;;;;;;;11.82;9.00;;;10.00;99.90;;;;;;5140462;27;20080;-83
2022/09/30 08:41:31;;;;;;;11.38;8.20;;;10.10;99.90;;;;;;5141780;27;20126;-83
2022/09/30 08:44:34;;;;;;;12.30;8.32;;;10.20;99.90;;;;;;5140930;27;20098;-82
2022/09/30 08:47:26;;;;;;;11.23;9.52;;;10.20;99.90;;;;;;5158127;27;20486;-83
2022/09/30 08:50:17;;;;;;;11.23;8.50;;;10.30;99.90;;;;;;5158186;27;20066;-83
2022/09/30 08:52:48;;;;;;;9.60;8.57;;;10.40;99.90;;;;;;5141303;27;20094;-83
2022/09/30 08:55:51;;;;;;;17.75;8.65;;;10.50;99.90;;;;;;5157237;27;20035;-83
2022/09/30 08:58:32;;;;;;;11.27;9.65;;;10.60;99.90;;;;;;5138311;27;20398;-85
2022/09/30 09:01:14;;;;;;;12.88;10.63;;;10.70;99.90;;;;;;5159154;27;20038;-86
2022/09/30 09:03:40;;;;;;;14.93;11.00;;;10.80;99.90;;;;;;5141174;27;20042;-86
2022/09/30 09:06:40;;;;;;;13.18;10.60;;;10.80;99.90;;;;;;5107250;27;20042;-85
2022/09/30 09:09:21;;;;;;;14.10;11.68;;;10.90;99.90;;;;;;5141427;27;20039;-87
2022/09/30 09:12:21;;;;;;;14.73;11.07;;;11.00;99.90;;;;;;5142097;27;20060;-86
2022/09/30 09:15:08;;;;;;;15.13;11.70;;;11.00;99.90;;;;;;5088711;27;20100;-86
2022/09/30 09:17:36;;;;;;;;;;;11.10;99.90;;;;;;5142771;27;20045;-86
2022/09/30 09:20:17;;;;;;;15.45;10.77;;;11.10;99.90;;;;;;5142426;27;19916;-86
2022/09/30 09:22:47;;;;;;;12.52;10.02;;;11.30;99.90;;;;;;5141959;27;20031;-86
2022/09/30 09:25:16;;;;;;;14.25;10.35;;;11.40;99.90;;;;;;5141222;27;20035;-87
2022/09/30 09:27:48;;;;;;;11.70;10.18;;;11.40;99.90;;;;;;5126003;27;20141;-87
2022/09/30 09:30:18;;;;;;;12.18;9.88;;;11.50;99.90;;;;;;5120714;27;20049;-86
2022/09/30 09:32:54;;;;;;;11.00;8.98;;;11.50;99.90;;;;;;5121216;27;20050;-86
2022/09/30 09:35:57;;;;;;;10.88;9.25;;;11.60;99.90;;;;;;5120995;27;20479;-86
2022/09/30 09:38:41;;;;;;;11.32;9.20;;;11.80;99.90;;;;;;5120447;27;20039;-86
2022/09/30 09:41:13;;;;;;;12.95;8.38;;;11.80;99.90;;;;;;5120356;27;20043;-87
2022/09/30 09:44:03;;;;;;;9.93;8.30;;;11.90;99.90;;;;;;5120868;27;20049;-86
2022/09/30 09:46:48;;;;;;;10.35;8.00;;;11.90;99.90;;;;;;5138427;27;20046;-87
2022/09/30 09:49:22;;;;;;;10.13;7.70;;;11.90;99.90;;;;;;5141326;27;20086;-86
2022/09/30 09:52:06;;;;;;;9.25;7.85;;;12.00;99.90;;;;;;5140341;27;20486;-86
2022/09/30 09:54:47;;;;;;;9.90;8.27;;;12.10;99.90;;;;;;5158211;27;20039;-86
2022/09/30 09:57:26;;;;;;;11.38;7.60;;;12.20;99.90;;;;;;5138427;27;20395;-86
2022/09/30 10:03:17;;;;;;;9.27;7.15;;;12.30;99.90;;;;;;5135569;27;20050;-83
2022/09/30 10:05:46;;;;;;;8.60;6.13;;;12.40;99.90;;;;;;5119422;27;20035;-83
2022/09/30 10:08:22;;;;;;;11.35;6.35;;;12.50;99.90;;;;;;5118048;27;20057;-83
2022/09/30 10:10:52;;;;;;;;;;;12.60;99.90;;;;;;5139951;27;20551;-83
2022/09/30 10:13:23;;;;;;;6.95;5.13;;;12.70;99.90;;;;;;5139481;27;19914;-83
2022/09/30 10:15:52;;;;;;;7.32;5.20;;;12.70;99.90;;;;;;5138805;27;20091;-82
2022/09/30 10:18:36;;;;;;;7.07;5.03;;;12.80;99.90;;;;;;5139315;27;20090;-84
2022/09/30 10:21:06;;;;;;;7.95;5.43;;;13.10;99.90;;;;;;5156987;27;20042;-83
2022/09/30 10:23:38;;;;;;;9.18;5.20;;;13.30;99.90;;;;;;5156552;27;20042;-83
2022/09/30 10:26:12;;;;;;;5.40;4.70;;;13.40;99.90;;;;;;5130753;27;20047;-82
2022/09/30 10:28:59;;;;;;;6.05;4.63;;;13.40;99.90;;;;;;5135238;27;20045;-83
2022/09/30 10:31:28;;;;;;;6.40;4.38;;;13.40;99.90;;;;;;5155344;27;20046;-83
2022/09/30 10:34:12;;;;;;;5.93;4.70;;;13.40;99.90;;;;;;5154722;27;20035;-82
2022/09/30 10:36:42;;;;;;;5.60;4.25;;;13.40;99.90;;;;;;5150738;27;20127;-83
2022/09/30 10:39:22;;;;;;;5.68;3.88;;;13.40;99.90;;;;;;5160400;27;20043;-83
2022/09/30 10:41:49;;;;;;;4.78;4.05;;;13.40;99.90;;;;;;5156096;27;20042;-82
2022/09/30 10:44:23;;;;;;;6.82;3.38;;;13.40;99.90;;;;;;5138936;27;20042;-83
2022/09/30 10:46:52;;;;;;;5.82;3.75;;;13.50;99.90;;;;;;5138748;27;20082;-83
2022/09/30 10:49:26;;;;;;;5.68;4.03;;;13.50;99.90;;;;;;5122301;27;20103;-83
2022/09/30 10:51:57;;;;;;;5.03;3.10;;;13.60;99.90;;;;;;5139817;27;20103;-84
2022/09/30 10:54:55;;;;;;;5.68;3.35;;;13.70;99.90;;;;;;5124861;27;20038;-83
2022/09/30 10:57:30;;;;;;;7.15;3.63;;;13.80;99.90;;;;;;5120623;27;20046;-83
2022/09/30 10:59:59;;;;;;;5.72;4.20;;;13.80;99.90;;;;;;5135755;27;20049;-83
2022/09/30 11:02:43;;;;;;;6.97;4.03;;;13.70;99.90;;;;;;5118516;28;20082;-83
2022/09/30 11:05:23;;;;;;;4.80;4.07;;;13.70;99.90;;;;;;5118819;28;20043;-83
2022/09/30 11:07:52;;;;;;;6.65;4.63;;;13.70;99.90;;;;;;5137209;27;20035;-83
2022/09/30 11:10:52;;;;;;;5.80;4.30;;;13.60;99.90;;;;;;5139316;27;20070;-83
2022/09/30 11:13:47;;;;;;;6.93;5.38;;;13.70;99.90;;;;;;5139100;27;20035;-83
2022/09/30 11:16:28;;;;;;;11.15;7.53;;;13.80;99.90;;;;;;5139569;27;20035;-83
2022/09/30 11:19:40;;;;;;;9.82;8.27;;;13.80;99.90;;;;;;5140313;27;20442;-83
2022/09/30 11:22:18;;;;;;;10.77;9.65;;;13.90;99.90;;;;;;5117664;27;20051;-83
2022/09/30 11:24:47;;;;;;;12.18;9.90;;;13.90;99.90;;;;;;5122219;27;20042;-83
2022/09/30 11:27:13;;;;;;;10.18;8.10;;;13.90;99.90;;;;;;5139801;27;20110;-83
2022/09/30 11:30:16;;;;;;;13.25;8.30;;;14.00;99.90;;;;;;5121962;27;20522;-82
2022/09/30 11:33:04;;;;;;;10.45;7.57;;;14.10;99.90;;;;;;5121929;27;20370;-83
2022/09/30 11:35:45;;;;;;;11.45;8.23;;;14.10;99.90;;;;;;5138795;27;20039;-83
2022/09/30 11:38:51;;;;;;;11.98;8.18;;;14.30;99.90;;;;;;5139404;27;20521;-83
2022/09/30 11:41:35;;;;;;;9.02;6.95;;;14.50;99.90;;;;;;5121849;27;20039;-82
2022/09/30 11:44:33;;;;;;;8.10;7.28;;;14.70;99.90;;;;;;5121881;27;20038;-83
2022/09/30 11:46:59;;;;;;;13.70;9.68;;;14.70;99.90;;;;;;5141064;27;20050;-86
2022/09/30 11:49:55;;;;;;;12.10;9.70;;;15.00;99.90;;;;;;5124961;27;20487;-86
2022/09/30 11:52:32;;;;;;;9.93;7.38;;;14.90;99.90;;;;;;5123053;27;20044;-82
2022/09/30 11:55:10;;;;;;;10.00;6.97;;;15.00;99.90;;;;;;5139408;27;20039;-82
2022/09/30 11:58:04;;;;;;;5.15;4.35;;;15.00;99.90;;;;;;5122378;27;20077;-84
2022/09/30 12:00:35;;;;;;;6.00;3.33;;;15.10;99.90;;;;;;5139176;27;20054;-86
2022/09/30 12:03:35;;;;;;;4.20;3.03;;;15.10;99.90;;;;;;5143672;27;20038;-87
2022/09/30 12:06:09;;;;;;;3.67;2.70;;;15.20;99.90;;;;;;5127549;27;20045;-85
2022/09/30 12:09:05;;;;;;;3.35;2.70;;;15.30;99.90;;;;;;5143669;27;20073;-85
2022/09/30 12:11:51;;;;;;;5.32;2.67;;;15.30;99.90;;;;;;5120712;27;20138;-86
2022/09/30 12:14:23;;;;;;;5.07;2.90;;;15.40;99.90;;;;;;5143123;27;20505;-86
2022/09/30 12:16:50;;;;;;;4.60;2.83;;;15.50;99.90;;;;;;5143559;27;20284;-86
2022/09/30 12:19:29;;;;;;;3.83;2.85;;;15.50;99.90;;;;;;5125582;27;20035;-86
2022/09/30 12:22:05;;;;;;;5.05;3.75;;;15.60;99.90;;;;;;5142630;27;20038;-84
2022/09/30 12:24:36;;;;;;;3.00;2.55;;;15.60;99.90;;;;;;5159296;27;20039;-86
2022/09/30 12:27:18;;;;;;;5.40;3.30;;;15.50;99.90;;;;;;5142593;27;20046;-85
2022/09/30 12:30:19;;;;;;;4.03;2.65;;;15.50;99.90;;;;;;5126258;27;20042;-82
2022/09/30 12:33:12;;;;;;;5.32;3.30;;;15.50;99.90;;;;;;5158264;27;20051;-82
2022/09/30 12:35:53;;;;;;;4.28;3.65;;;15.50;99.90;;;;;;5140862;27;20043;-82
2022/09/30 12:38:32;;;;;;;4.90;3.42;;;15.50;99.90;;;;;;5142153;27;20477;-86
2022/09/30 12:41:20;;;;;;;4.03;3.38;;;15.50;99.90;;;;;;5142286;27;20034;-85
2022/09/30 12:44:15;;;;;;;5.40;3.90;;;15.60;99.90;;;;;;5142687;27;20043;-86
2022/09/30 12:46:44;;;;;;;8.25;4.57;;;15.80;99.90;;;;;;5143500;27;20416;-86
2022/09/30 12:49:14;;;;;;;8.00;5.85;;;15.90;99.90;;;;;;5142442;27;20057;-86
2022/09/30 12:51:47;;;;;;;9.23;6.10;;;15.80;99.90;;;;;;5142535;27;20042;-85
2022/09/30 12:54:21;;;;;;;6.95;5.22;;;15.80;99.90;;;;;;5127376;27;20030;-86
2022/09/30 12:56:54;;;;;;;5.97;4.00;;;15.80;99.90;;;;;;5143247;27;20038;-86
2022/09/30 12:59:26;;;;;;;4.55;3.30;;;15.80;99.90;;;;;;5143089;27;20039;-85
2022/09/30 13:01:53;;;;;;;4.07;3.15;;;15.80;99.90;;;;;;5160674;27;20034;-85
2022/09/30 13:04:44;;;;;;;4.03;2.83;;;15.80;99.90;;;;;;5143961;27;20038;-85
2022/09/30 13:07:10;;;;;;;4.05;2.58;;;15.80;99.90;;;;;;5143366;27;20486;-86
2022/09/30 13:09:57;;;;;;;5.18;2.83;;;15.80;99.90;;;;;;5141146;27;20042;-82
2022/09/30 13:13:15;;;;;;;5.07;3.90;;;16.00;99.90;;;;;;5136239;27;20035;-82
2022/09/30 13:15:45;;;;;;;4.45;3.20;;;16.00;99.90;;;;;;5079039;28;20036;-82
2022/09/30 13:18:20;;;;;;;4.22;3.30;;;16.00;99.90;;;;;;5117099;27;20039;-82
2022/09/30 13:20:55;;;;;;;4.82;4.28;;;16.00;99.90;;;;;;5119605;27;20510;-82
2022/09/30 13:23:59;;;;;;;4.60;3.65;;;16.10;99.90;;;;;;5136762;27;20078;-82
2022/09/30 13:26:30;;;;;;;5.32;3.78;;;16.20;99.90;;;;;;5065112;28;20122;-82
2022/09/30 13:29:01;;;;;;;5.32;4.13;;;16.20;99.90;;;;;;5080824;28;20035;-82
2022/09/30 13:31:30;;;;;;;4.90;3.53;;;16.30;99.90;;;;;;5128402;27;20095;-82